Alden, Michigan
Current Conditions -  °F | °C
As of 6:15 PM on Wednesday 17 Dec 2014 (Local Time) from KACB Reporting Station
Light Snow Light Snow  
Wind Chill: -5°   Ceiling: 1700
Heat Index: -2°   Visibility: 2.5mi
Dew Point: -3°   Wind: 5mph
Humidity: 92%   Direction: 320°NW
Pressure: 30.07"   Gusts: NA
Location:  44.88°N, 85.28°W
Report Text: KACB 172315Z AUTO 32004KT 2 1/2SM -SN SCT010 BKN017 OVC025 M02/M03 A3007 RMK AO2 T10181030
Loading
Personal Weather Stations






























Interactive Weather Map New forecast layout! Learn more

10-Day Weather Forecast

Advertisements
Track Severe Weather on mobile